Etusivu
METAR-TAF:

METAR-TAF

Lentoasemat :

Illinois Valley Regional Airport (Walter A. Duncan Field)

Peru / LaSalle, Illinois, Yhdysvallat

Leveyspiiri: 41-21-07N, Pituuspiiri: 089-09-11W, korkeus merenpinnasta: 199 m

Tämänhetkinen sää

Tämä raportti tehtiin 33 minuuttia sitten, kello 05.15 UTC
Tuuli 3 kn idästä/kaakosta
Lämpötila 0°C
Kosteus 93%
Ilmanpaine 1008 hPa
Näkyvyys: 11.3 km
Hajanaisia pilviä 1600 ft:n korkeudessa
Hajonneita pilviä 8500 ft:n korkeudessa

METAR: KVYS 190515Z AUTO 11003KT 7SM SCT016 BKN085 00/M01 A2976 RMK AO2 T10011010

Aika: 23:48 (05:48 UTC)


TAF: puuttuu

Säähavainnot ja -ennusteet yli 4000 lentoasemalta (METAR- ja TAF-raportit).

Käytössä olevat sääasemat on merkitty karttaan keltaisilla ja punaisilla pisteillä.

Aseta hiiri pisteen päälle nähdäksesi sääaseman nimen.

Klikkaa sitten nähdäksesi säähavainnot ja -ennusteet.

Kartan vaihtaminen: klikkaa mustalla rastilla varustettuja vihreitä pisteitä, niin voit zoomata sisään; viivalla varustettua vihreää pistettä, niin voit zoomata ulos tai vihreitä nuolia, niin pääset viereisille kartoille.


METAR-TAF: